sensor_id;sensor_type;location;lat;lon;timestamp;temperature;humidity
21582;DHT22;10952;50.836;4.348;2023-05-07T00:01:45;18.90;99.90
21582;DHT22;10952;50.836;4.348;2023-05-07T00:04:11;18.90;99.90
21582;DHT22;10952;50.836;4.348;2023-05-07T00:06:36;19.00;99.90
21582;DHT22;10952;50.836;4.348;2023-05-07T00:09:02;19.00;99.90
21582;DHT22;10952;50.836;4.348;2023-05-07T00:11:29;18.90;99.90
21582;DHT22;10952;50.836;4.348;2023-05-07T00:13:55;18.90;99.90
21582;DHT22;10952;50.836;4.348;2023-05-07T00:16:21;18.90;99.90
21582;DHT22;10952;50.836;4.348;2023-05-07T00:18:46;18.90;99.90
21582;DHT22;10952;50.836;4.348;2023-05-07T00:21:12;18.80;99.90
21582;DHT22;10952;50.836;4.348;2023-05-07T00:23:38;18.80;99.90
21582;DHT22;10952;50.836;4.348;2023-05-07T00:26:03;18.90;99.90
21582;DHT22;10952;50.836;4.348;2023-05-07T00:28:29;18.80;99.90
21582;DHT22;10952;50.836;4.348;2023-05-07T00:30:55;18.80;99.90
21582;DHT22;10952;50.836;4.348;2023-05-07T00:33:21;18.70;99.90
21582;DHT22;10952;50.836;4.348;2023-05-07T00:35:47;18.60;99.90
21582;DHT22;10952;50.836;4.348;2023-05-07T00:38:13;18.40;99.90
21582;DHT22;10952;50.836;4.348;2023-05-07T00:40:39;18.30;99.90
21582;DHT22;10952;50.836;4.348;2023-05-07T00:43:05;18.30;99.90
21582;DHT22;10952;50.836;4.348;2023-05-07T00:45:33;18.20;99.90
21582;DHT22;10952;50.836;4.348;2023-05-07T00:48:05;18.20;99.90
21582;DHT22;10952;50.836;4.348;2023-05-07T00:50:32;18.20;99.90
21582;DHT22;10952;50.836;4.348;2023-05-07T00:52:58;18.40;99.90
21582;DHT22;10952;50.836;4.348;2023-05-07T00:55:25;18.30;99.90
21582;DHT22;10952;50.836;4.348;2023-05-07T00:57:51;18.30;99.90
21582;DHT22;10952;50.836;4.348;2023-05-07T01:00:17;18.40;99.90
21582;DHT22;10952;50.836;4.348;2023-05-07T01:02:43;18.40;99.90
21582;DHT22;10952;50.836;4.348;2023-05-07T01:05:11;18.30;99.90
21582;DHT22;10952;50.836;4.348;2023-05-07T01:07:40;18.30;99.90
21582;DHT22;10952;50.836;4.348;2023-05-07T01:10:07;18.20;99.90
21582;DHT22;10952;50.836;4.348;2023-05-07T01:12:33;18.20;99.90
21582;DHT22;10952;50.836;4.348;2023-05-07T01:15:00;18.20;99.90
21582;DHT22;10952;50.836;4.348;2023-05-07T01:17:26;18.20;99.90
21582;DHT22;10952;50.836;4.348;2023-05-07T01:19:51;18.20;99.90
21582;DHT22;10952;50.836;4.348;2023-05-07T01:22:31;18.30;99.90
21582;DHT22;10952;50.836;4.348;2023-05-07T01:24:58;18.30;99.90
21582;DHT22;10952;50.836;4.348;2023-05-07T01:27:25;18.40;99.90
21582;DHT22;10952;50.836;4.348;2023-05-07T01:29:51;18.30;99.90
21582;DHT22;10952;50.836;4.348;2023-05-07T01:32:18;18.30;99.90
21582;DHT22;10952;50.836;4.348;2023-05-07T01:34:48;18.40;99.90
21582;DHT22;10952;50.836;4.348;2023-05-07T01:37:16;18.40;99.90
21582;DHT22;10952;50.836;4.348;2023-05-07T01:39:42;18.40;99.90
21582;DHT22;10952;50.836;4.348;2023-05-07T01:42:08;18.40;99.90
21582;DHT22;10952;50.836;4.348;2023-05-07T01:44:34;18.40;99.90
21582;DHT22;10952;50.836;4.348;2023-05-07T01:47:01;18.30;99.90
21582;DHT22;10952;50.836;4.348;2023-05-07T01:49:27;18.30;99.90
21582;DHT22;10952;50.836;4.348;2023-05-07T01:51:53;18.10;99.90
21582;DHT22;10952;50.836;4.348;2023-05-07T01:54:19;18.20;99.90
21582;DHT22;10952;50.836;4.348;2023-05-07T01:56:45;18.20;99.90
21582;DHT22;10952;50.836;4.348;2023-05-07T01:59:13;18.20;99.90
21582;DHT22;10952;50.836;4.348;2023-05-07T02:01:39;18.10;99.90
21582;DHT22;10952;50.836;4.348;2023-05-07T02:04:04;18.00;99.90
21582;DHT22;10952;50.836;4.348;2023-05-07T02:06:30;18.00;99.90
21582;DHT22;10952;50.836;4.348;2023-05-07T02:08:56;18.00;99.90
21582;DHT22;10952;50.836;4.348;2023-05-07T02:11:22;17.90;99.90
21582;DHT22;10952;50.836;4.348;2023-05-07T02:13:47;18.00;99.90
21582;DHT22;10952;50.836;4.348;2023-05-07T02:16:13;18.00;99.90
21582;DHT22;10952;50.836;4.348;2023-05-07T02:18:39;17.90;99.90
21582;DHT22;10952;50.836;4.348;2023-05-07T02:21:05;17.80;99.90
21582;DHT22;10952;50.836;4.348;2023-05-07T02:23:31;17.80;99.90
21582;DHT22;10952;50.836;4.348;2023-05-07T02:25:56;17.80;99.90
21582;DHT22;10952;50.836;4.348;2023-05-07T02:28:22;17.80;99.90
21582;DHT22;10952;50.836;4.348;2023-05-07T02:30:48;17.80;99.90
21582;DHT22;10952;50.836;4.348;2023-05-07T02:33:13;17.90;99.90
21582;DHT22;10952;50.836;4.348;2023-05-07T02:35:39;17.90;99.90
21582;DHT22;10952;50.836;4.348;2023-05-07T02:38:05;17.90;99.90
21582;DHT22;10952;50.836;4.348;2023-05-07T02:40:31;17.90;99.90
21582;DHT22;10952;50.836;4.348;2023-05-07T02:42:59;17.80;99.90
21582;DHT22;10952;50.836;4.348;2023-05-07T02:45:25;17.90;99.90
21582;DHT22;10952;50.836;4.348;2023-05-07T02:47:50;17.90;99.90
21582;DHT22;10952;50.836;4.348;2023-05-07T02:50:16;18.00;99.90
21582;DHT22;10952;50.836;4.348;2023-05-07T02:52:42;18.10;99.90
21582;DHT22;10952;50.836;4.348;2023-05-07T02:55:08;18.00;99.90
21582;DHT22;10952;50.836;4.348;2023-05-07T02:57:34;18.00;99.90
21582;DHT22;10952;50.836;4.348;2023-05-07T02:59:59;18.00;99.90
21582;DHT22;10952;50.836;4.348;2023-05-07T03:02:35;17.90;99.90
21582;DHT22;10952;50.836;4.348;2023-05-07T03:05:01;17.80;99.90
21582;DHT22;10952;50.836;4.348;2023-05-07T03:07:27;17.90;99.90
21582;DHT22;10952;50.836;4.348;2023-05-07T03:09:52;17.90;99.90
21582;DHT22;10952;50.836;4.348;2023-05-07T03:12:19;18.00;99.90
21582;DHT22;10952;50.836;4.348;2023-05-07T03:14:44;18.10;99.90
21582;DHT22;10952;50.836;4.348;2023-05-07T03:17:10;18.20;99.90
21582;DHT22;10952;50.836;4.348;2023-05-07T03:19:36;18.20;99.90
21582;DHT22;10952;50.836;4.348;2023-05-07T03:22:01;18.20;99.90
21582;DHT22;10952;50.836;4.348;2023-05-07T03:24:27;18.00;99.90
21582;DHT22;10952;50.836;4.348;2023-05-07T03:26:52;18.00;99.90
21582;DHT22;10952;50.836;4.348;2023-05-07T03:29:18;18.10;99.90
21582;DHT22;10952;50.836;4.348;2023-05-07T03:31:44;18.20;99.90
21582;DHT22;10952;50.836;4.348;2023-05-07T03:34:10;18.20;99.90
21582;DHT22;10952;50.836;4.348;2023-05-07T03:36:36;18.20;99.90
21582;DHT22;10952;50.836;4.348;2023-05-07T03:39:01;18.30;99.90
21582;DHT22;10952;50.836;4.348;2023-05-07T03:41:27;18.30;99.90
21582;DHT22;10952;50.836;4.348;2023-05-07T03:43:53;18.30;99.90
21582;DHT22;10952;50.836;4.348;2023-05-07T03:46:18;18.20;99.90
21582;DHT22;10952;50.836;4.348;2023-05-07T03:48:44;18.20;99.90
21582;DHT22;10952;50.836;4.348;2023-05-07T03:51:09;18.20;99.90
21582;DHT22;10952;50.836;4.348;2023-05-07T03:53:35;18.40;99.90
21582;DHT22;10952;50.836;4.348;2023-05-07T03:56:01;18.40;99.90
21582;DHT22;10952;50.836;4.348;2023-05-07T03:58:26;18.30;99.90
21582;DHT22;10952;50.836;4.348;2023-05-07T04:00:52;18.30;99.90
21582;DHT22;10952;50.836;4.348;2023-05-07T04:03:17;18.30;99.90
21582;DHT22;10952;50.836;4.348;2023-05-07T04:05:43;18.30;99.90
21582;DHT22;10952;50.836;4.348;2023-05-07T04:08:09;18.30;99.90
21582;DHT22;10952;50.836;4.348;2023-05-07T04:10:34;18.40;99.90
21582;DHT22;10952;50.836;4.348;2023-05-07T04:13:00;18.40;99.90
21582;DHT22;10952;50.836;4.348;2023-05-07T04:15:26;18.40;99.90
21582;DHT22;10952;50.836;4.348;2023-05-07T04:17:51;18.40;99.90
21582;DHT22;10952;50.836;4.348;2023-05-07T04:20:17;18.30;99.90
21582;DHT22;10952;50.836;4.348;2023-05-07T04:22:43;18.30;99.90
21582;DHT22;10952;50.836;4.348;2023-05-07T04:25:09;18.30;99.90
21582;DHT22;10952;50.836;4.348;2023-05-07T04:27:35;18.30;99.90
21582;DHT22;10952;50.836;4.348;2023-05-07T04:30:02;18.40;99.90
21582;DHT22;10952;50.836;4.348;2023-05-07T04:32:28;18.50;99.90
21582;DHT22;10952;50.836;4.348;2023-05-07T04:34:57;18.50;99.90
21582;DHT22;10952;50.836;4.348;2023-05-07T04:37:23;18.40;99.90
21582;DHT22;10952;50.836;4.348;2023-05-07T04:39:49;18.30;99.90
21582;DHT22;10952;50.836;4.348;2023-05-07T04:42:15;18.30;99.90
21582;DHT22;10952;50.836;4.348;2023-05-07T04:44:41;18.30;99.90
21582;DHT22;10952;50.836;4.348;2023-05-07T04:47:07;18.30;99.90
21582;DHT22;10952;50.836;4.348;2023-05-07T04:49:33;18.30;99.90
21582;DHT22;10952;50.836;4.348;2023-05-07T04:51:58;18.40;99.90
21582;DHT22;10952;50.836;4.348;2023-05-07T04:54:24;18.40;99.90
21582;DHT22;10952;50.836;4.348;2023-05-07T04:56:50;18.50;99.90
21582;DHT22;10952;50.836;4.348;2023-05-07T04:59:16;18.30;99.90
21582;DHT22;10952;50.836;4.348;2023-05-07T05:01:41;18.20;99.90
21582;DHT22;10952;50.836;4.348;2023-05-07T05:04:07;18.30;99.90
21582;DHT22;10952;50.836;4.348;2023-05-07T05:06:36;18.40;99.90
21582;DHT22;10952;50.836;4.348;2023-05-07T05:09:02;18.40;99.90
21582;DHT22;10952;50.836;4.348;2023-05-07T05:11:27;18.50;99.90
21582;DHT22;10952;50.836;4.348;2023-05-07T05:13:53;18.60;99.90
21582;DHT22;10952;50.836;4.348;2023-05-07T05:16:19;18.70;99.90
21582;DHT22;10952;50.836;4.348;2023-05-07T05:18:44;18.70;99.90
21582;DHT22;10952;50.836;4.348;2023-05-07T05:21:10;18.80;99.90
21582;DHT22;10952;50.836;4.348;2023-05-07T05:23:35;18.90;99.90
21582;DHT22;10952;50.836;4.348;2023-05-07T05:26:01;18.90;99.90
21582;DHT22;10952;50.836;4.348;2023-05-07T05:28:27;18.90;99.90
21582;DHT22;10952;50.836;4.348;2023-05-07T05:30:53;19.00;99.90
21582;DHT22;10952;50.836;4.348;2023-05-07T05:33:19;19.00;99.90
21582;DHT22;10952;50.836;4.348;2023-05-07T05:35:45;18.90;99.90
21582;DHT22;10952;50.836;4.348;2023-05-07T05:38:10;18.90;99.90
21582;DHT22;10952;50.836;4.348;2023-05-07T05:40:36;18.90;99.90
21582;DHT22;10952;50.836;4.348;2023-05-07T05:43:02;18.90;99.90
21582;DHT22;10952;50.836;4.348;2023-05-07T05:45:27;18.90;99.90
21582;DHT22;10952;50.836;4.348;2023-05-07T05:47:53;19.00;99.90
21582;DHT22;10952;50.836;4.348;2023-05-07T05:50:21;19.10;99.90
21582;DHT22;10952;50.836;4.348;2023-05-07T05:52:46;19.20;99.90
21582;DHT22;10952;50.836;4.348;2023-05-07T05:55:12;18.80;99.90
21582;DHT22;10952;50.836;4.348;2023-05-07T05:57:38;18.80;99.90
21582;DHT22;10952;50.836;4.348;2023-05-07T06:00:04;18.60;99.90
21582;DHT22;10952;50.836;4.348;2023-05-07T06:02:30;18.50;99.90
21582;DHT22;10952;50.836;4.348;2023-05-07T06:04:56;18.40;99.90
21582;DHT22;10952;50.836;4.348;2023-05-07T06:07:21;18.50;99.90
21582;DHT22;10952;50.836;4.348;2023-05-07T06:09:47;18.50;99.90
21582;DHT22;10952;50.836;4.348;2023-05-07T06:12:16;18.50;99.90
21582;DHT22;10952;50.836;4.348;2023-05-07T06:14:43;18.40;99.90
21582;DHT22;10952;50.836;4.348;2023-05-07T06:17:09;18.50;99.90
21582;DHT22;10952;50.836;4.348;2023-05-07T06:19:35;18.40;99.90
21582;DHT22;10952;50.836;4.348;2023-05-07T06:22:01;18.40;99.90
21582;DHT22;10952;50.836;4.348;2023-05-07T06:24:27;18.40;99.90
21582;DHT22;10952;50.836;4.348;2023-05-07T06:26:52;18.40;99.90
21582;DHT22;10952;50.836;4.348;2023-05-07T06:29:18;18.40;99.90
21582;DHT22;10952;50.836;4.348;2023-05-07T06:31:44;18.40;99.90
21582;DHT22;10952;50.836;4.348;2023-05-07T06:34:10;18.30;99.90
21582;DHT22;10952;50.836;4.348;2023-05-07T06:36:39;18.30;99.90
21582;DHT22;10952;50.836;4.348;2023-05-07T06:39:05;18.20;99.90
21582;DHT22;10952;50.836;4.348;2023-05-07T06:41:31;18.10;99.90
21582;DHT22;10952;50.836;4.348;2023-05-07T06:43:57;17.90;99.90
21582;DHT22;10952;50.836;4.348;2023-05-07T06:46:22;17.70;99.90
21582;DHT22;10952;50.836;4.348;2023-05-07T06:48:48;17.60;99.90
21582;DHT22;10952;50.836;4.348;2023-05-07T06:51:14;17.50;99.90
21582;DHT22;10952;50.836;4.348;2023-05-07T06:53:39;17.50;99.90
21582;DHT22;10952;50.836;4.348;2023-05-07T06:56:06;17.50;99.90
21582;DHT22;10952;50.836;4.348;2023-05-07T06:58:32;17.40;99.90
21582;DHT22;10952;50.836;4.348;2023-05-07T07:00:58;17.30;99.90
21582;DHT22;10952;50.836;4.348;2023-05-07T07:03:23;17.30;99.90
21582;DHT22;10952;50.836;4.348;2023-05-07T07:05:53;17.30;99.90
21582;DHT22;10952;50.836;4.348;2023-05-07T07:08:18;17.30;99.90
21582;DHT22;10952;50.836;4.348;2023-05-07T07:10:46;17.30;99.90
21582;DHT22;10952;50.836;4.348;2023-05-07T07:13:13;17.40;99.90
21582;DHT22;10952;50.836;4.348;2023-05-07T07:15:39;17.40;99.90
21582;DHT22;10952;50.836;4.348;2023-05-07T07:18:05;17.40;99.90
21582;DHT22;10952;50.836;4.348;2023-05-07T07:20:31;17.40;99.90
21582;DHT22;10952;50.836;4.348;2023-05-07T07:22:57;17.40;99.90
21582;DHT22;10952;50.836;4.348;2023-05-07T07:25:23;17.40;99.90
21582;DHT22;10952;50.836;4.348;2023-05-07T07:27:49;17.40;99.90
21582;DHT22;10952;50.836;4.348;2023-05-07T07:30:15;17.50;99.90
21582;DHT22;10952;50.836;4.348;2023-05-07T07:32:40;17.40;99.90
21582;DHT22;10952;50.836;4.348;2023-05-07T07:35:06;17.40;99.90
21582;DHT22;10952;50.836;4.348;2023-05-07T07:37:32;17.30;99.90
21582;DHT22;10952;50.836;4.348;2023-05-07T07:39:58;17.30;99.90
21582;DHT22;10952;50.836;4.348;2023-05-07T07:42:24;17.40;99.90
21582;DHT22;10952;50.836;4.348;2023-05-07T07:44:50;17.60;99.90
21582;DHT22;10952;50.836;4.348;2023-05-07T07:47:15;17.70;99.90
21582;DHT22;10952;50.836;4.348;2023-05-07T07:49:41;17.70;99.90
21582;DHT22;10952;50.836;4.348;2023-05-07T07:52:07;17.70;99.90
21582;DHT22;10952;50.836;4.348;2023-05-07T07:54:32;17.70;99.90
21582;DHT22;10952;50.836;4.348;2023-05-07T07:56:58;17.70;99.90
21582;DHT22;10952;50.836;4.348;2023-05-07T07:59:24;17.80;99.90
21582;DHT22;10952;50.836;4.348;2023-05-07T08:01:49;17.80;99.90
21582;DHT22;10952;50.836;4.348;2023-05-07T08:04:17;17.80;99.90
21582;DHT22;10952;50.836;4.348;2023-05-07T08:06:43;17.80;99.90
21582;DHT22;10952;50.836;4.348;2023-05-07T08:09:08;17.80;99.90
21582;DHT22;10952;50.836;4.348;2023-05-07T08:11:34;17.80;99.90
21582;DHT22;10952;50.836;4.348;2023-05-07T08:14:00;17.70;99.90
21582;DHT22;10952;50.836;4.348;2023-05-07T08:16:26;17.80;99.90
21582;DHT22;10952;50.836;4.348;2023-05-07T08:18:52;17.90;99.90
21582;DHT22;10952;50.836;4.348;2023-05-07T08:21:21;17.90;99.90
21582;DHT22;10952;50.836;4.348;2023-05-07T08:23:47;17.90;99.90
21582;DHT22;10952;50.836;4.348;2023-05-07T08:26:13;17.80;99.90
21582;DHT22;10952;50.836;4.348;2023-05-07T08:28:38;17.70;99.90
21582;DHT22;10952;50.836;4.348;2023-05-07T08:31:05;17.70;99.90
21582;DHT22;10952;50.836;4.348;2023-05-07T08:33:31;17.70;99.90
21582;DHT22;10952;50.836;4.348;2023-05-07T08:35:56;17.80;99.90
21582;DHT22;10952;50.836;4.348;2023-05-07T08:38:22;17.70;99.90
21582;DHT22;10952;50.836;4.348;2023-05-07T08:40:48;17.70;99.90
21582;DHT22;10952;50.836;4.348;2023-05-07T08:43:14;17.70;99.90
21582;DHT22;10952;50.836;4.348;2023-05-07T08:45:41;17.80;99.90
21582;DHT22;10952;50.836;4.348;2023-05-07T08:48:14;17.90;99.90
21582;DHT22;10952;50.836;4.348;2023-05-07T08:50:40;17.90;99.90
21582;DHT22;10952;50.836;4.348;2023-05-07T08:53:06;18.00;99.90
21582;DHT22;10952;50.836;4.348;2023-05-07T08:55:32;18.10;99.90
21582;DHT22;10952;50.836;4.348;2023-05-07T08:57:59;18.10;99.90
21582;DHT22;10952;50.836;4.348;2023-05-07T09:00:24;18.10;99.90
21582;DHT22;10952;50.836;4.348;2023-05-07T09:02:52;18.20;99.90
21582;DHT22;10952;50.836;4.348;2023-05-07T09:05:18;18.30;99.90
21582;DHT22;10952;50.836;4.348;2023-05-07T09:07:44;18.10;99.90
21582;DHT22;10952;50.836;4.348;2023-05-07T09:10:10;18.30;99.90
21582;DHT22;10952;50.836;4.348;2023-05-07T09:12:35;18.40;99.90
21582;DHT22;10952;50.836;4.348;2023-05-07T09:15:01;18.40;99.90
21582;DHT22;10952;50.836;4.348;2023-05-07T09:17:28;18.50;99.90
21582;DHT22;10952;50.836;4.348;2023-05-07T09:19:54;18.50;99.90
21582;DHT22;10952;50.836;4.348;2023-05-07T09:22:19;18.60;99.90
21582;DHT22;10952;50.836;4.348;2023-05-07T09:24:48;18.70;99.90
21582;DHT22;10952;50.836;4.348;2023-05-07T09:27:14;18.90;99.90
21582;DHT22;10952;50.836;4.348;2023-05-07T09:29:40;19.00;99.90
21582;DHT22;10952;50.836;4.348;2023-05-07T09:32:06;19.10;99.90
21582;DHT22;10952;50.836;4.348;2023-05-07T09:34:32;19.10;99.90
21582;DHT22;10952;50.836;4.348;2023-05-07T09:37:02;19.10;99.90
21582;DHT22;10952;50.836;4.348;2023-05-07T09:39:45;19.20;99.90
21582;DHT22;10952;50.836;4.348;2023-05-07T09:42:11;19.50;99.90
21582;DHT22;10952;50.836;4.348;2023-05-07T09:44:38;19.60;99.90
21582;DHT22;10952;50.836;4.348;2023-05-07T09:47:07;19.70;99.90
21582;DHT22;10952;50.836;4.348;2023-05-07T09:49:39;19.70;99.90
21582;DHT22;10952;50.836;4.348;2023-05-07T09:52:06;19.70;99.90
21582;DHT22;10952;50.836;4.348;2023-05-07T09:54:35;19.80;99.90
21582;DHT22;10952;50.836;4.348;2023-05-07T09:57:05;19.50;99.90
21582;DHT22;10952;50.836;4.348;2023-05-07T09:59:32;19.30;99.90
21582;DHT22;10952;50.836;4.348;2023-05-07T10:01:59;19.00;99.90
21582;DHT22;10952;50.836;4.348;2023-05-07T10:04:26;19.10;99.90
21582;DHT22;10952;50.836;4.348;2023-05-07T10:06:52;19.00;99.90
21582;DHT22;10952;50.836;4.348;2023-05-07T10:09:19;18.90;99.90
21582;DHT22;10952;50.836;4.348;2023-05-07T10:11:46;18.60;99.90
21582;DHT22;10952;50.836;4.348;2023-05-07T10:14:14;18.70;99.90
21582;DHT22;10952;50.836;4.348;2023-05-07T10:16:40;18.90;99.90
21582;DHT22;10952;50.836;4.348;2023-05-07T10:19:08;19.10;99.90
21582;DHT22;10952;50.836;4.348;2023-05-07T10:21:37;19.10;99.90
21582;DHT22;10952;50.836;4.348;2023-05-07T10:24:07;19.10;99.90
21582;DHT22;10952;50.836;4.348;2023-05-07T10:26:40;19.20;99.90
21582;DHT22;10952;50.836;4.348;2023-05-07T10:29:14;19.20;99.90
21582;DHT22;10952;50.836;4.348;2023-05-07T10:31:52;19.30;99.90
21582;DHT22;10952;50.836;4.348;2023-05-07T10:34:34;19.40;99.90
21582;DHT22;10952;50.836;4.348;2023-05-07T10:37:01;19.30;99.90
21582;DHT22;10952;50.836;4.348;2023-05-07T10:39:28;19.20;99.90
21582;DHT22;10952;50.836;4.348;2023-05-07T10:41:54;19.20;99.90
21582;DHT22;10952;50.836;4.348;2023-05-07T10:44:29;19.30;99.90
21582;DHT22;10952;50.836;4.348;2023-05-07T10:47:08;19.20;99.90
21582;DHT22;10952;50.836;4.348;2023-05-07T10:52:22;18.90;99.90
21582;DHT22;10952;50.836;4.348;2023-05-07T10:57:42;18.70;99.90
21582;DHT22;10952;50.836;4.348;2023-05-07T11:05:30;19.10;99.90
21582;DHT22;10952;50.836;4.348;2023-05-07T11:08:03;19.20;99.90
21582;DHT22;10952;50.836;4.348;2023-05-07T11:13:17;19.60;99.90
21582;DHT22;10952;50.836;4.348;2023-05-07T11:15:45;19.50;99.90
21582;DHT22;10952;50.836;4.348;2023-05-07T11:18:13;19.60;99.90
21582;DHT22;10952;50.836;4.348;2023-05-07T11:20:56;19.80;99.90
21582;DHT22;10952;50.836;4.348;2023-05-07T11:26:04;19.70;99.90
21582;DHT22;10952;50.836;4.348;2023-05-07T11:28:31;19.80;99.90
21582;DHT22;10952;50.836;4.348;2023-05-07T11:30:57;19.90;99.90
21582;DHT22;10952;50.836;4.348;2023-05-07T11:33:23;20.10;99.90
21582;DHT22;10952;50.836;4.348;2023-05-07T11:35:53;20.10;99.90
21582;DHT22;10952;50.836;4.348;2023-05-07T11:38:19;19.90;99.90
21582;DHT22;10952;50.836;4.348;2023-05-07T11:40:49;19.80;99.90
21582;DHT22;10952;50.836;4.348;2023-05-07T11:43:15;19.70;99.90
21582;DHT22;10952;50.836;4.348;2023-05-07T11:45:41;19.80;99.90
21582;DHT22;10952;50.836;4.348;2023-05-07T11:48:06;19.80;99.90
21582;DHT22;10952;50.836;4.348;2023-05-07T11:50:32;19.80;99.90
21582;DHT22;10952;50.836;4.348;2023-05-07T11:52:58;19.90;99.90
21582;DHT22;10952;50.836;4.348;2023-05-07T11:55:24;19.90;99.90
21582;DHT22;10952;50.836;4.348;2023-05-07T11:57:51;20.00;99.90
21582;DHT22;10952;50.836;4.348;2023-05-07T12:00:17;20.10;99.90
21582;DHT22;10952;50.836;4.348;2023-05-07T12:02:45;20.30;99.90
21582;DHT22;10952;50.836;4.348;2023-05-07T12:05:10;20.60;99.90
21582;DHT22;10952;50.836;4.348;2023-05-07T12:07:36;20.80;99.90
21582;DHT22;10952;50.836;4.348;2023-05-07T12:10:06;20.90;99.90
21582;DHT22;10952;50.836;4.348;2023-05-07T12:12:41;20.90;99.90
21582;DHT22;10952;50.836;4.348;2023-05-07T12:15:10;20.80;99.90
21582;DHT22;10952;50.836;4.348;2023-05-07T12:17:36;20.70;99.90
21582;DHT22;10952;50.836;4.348;2023-05-07T12:20:02;21.00;99.90
21582;DHT22;10952;50.836;4.348;2023-05-07T12:22:28;21.30;99.90
21582;DHT22;10952;50.836;4.348;2023-05-07T12:24:58;21.60;99.90
21582;DHT22;10952;50.836;4.348;2023-05-07T12:27:24;21.80;99.90
21582;DHT22;10952;50.836;4.348;2023-05-07T12:29:50;21.50;99.90
21582;DHT22;10952;50.836;4.348;2023-05-07T12:32:20;21.70;99.90
21582;DHT22;10952;50.836;4.348;2023-05-07T12:34:50;21.80;99.90
21582;DHT22;10952;50.836;4.348;2023-05-07T12:37:16;21.70;99.90
21582;DHT22;10952;50.836;4.348;2023-05-07T12:39:47;21.80;99.90
21582;DHT22;10952;50.836;4.348;2023-05-07T12:42:18;21.60;99.90
21582;DHT22;10952;50.836;4.348;2023-05-07T12:44:46;21.60;99.90
21582;DHT22;10952;50.836;4.348;2023-05-07T12:47:12;21.60;99.90
21582;DHT22;10952;50.836;4.348;2023-05-07T12:49:38;21.30;99.90
21582;DHT22;10952;50.836;4.348;2023-05-07T12:52:05;21.40;99.90
21582;DHT22;10952;50.836;4.348;2023-05-07T12:54:37;21.40;99.90
21582;DHT22;10952;50.836;4.348;2023-05-07T12:57:05;21.70;99.90
21582;DHT22;10952;50.836;4.348;2023-05-07T12:59:38;21.70;99.90
21582;DHT22;10952;50.836;4.348;2023-05-07T13:02:05;21.70;99.90
21582;DHT22;10952;50.836;4.348;2023-05-07T13:04:31;21.60;99.90
21582;DHT22;10952;50.836;4.348;2023-05-07T13:06:57;21.60;99.90
21582;DHT22;10952;50.836;4.348;2023-05-07T13:09:23;21.50;99.90
21582;DHT22;10952;50.836;4.348;2023-05-07T13:11:48;21.20;99.90
21582;DHT22;10952;50.836;4.348;2023-05-07T13:14:15;21.10;99.90
21582;DHT22;10952;50.836;4.348;2023-05-07T13:16:40;21.00;99.90
21582;DHT22;10952;50.836;4.348;2023-05-07T13:19:06;21.00;99.90
21582;DHT22;10952;50.836;4.348;2023-05-07T13:21:32;21.00;99.90
21582;DHT22;10952;50.836;4.348;2023-05-07T13:23:58;20.80;99.90
21582;DHT22;10952;50.836;4.348;2023-05-07T13:26:24;20.70;99.90
21582;DHT22;10952;50.836;4.348;2023-05-07T13:28:51;20.80;99.90
21582;DHT22;10952;50.836;4.348;2023-05-07T13:31:17;20.90;99.90
21582;DHT22;10952;50.836;4.348;2023-05-07T13:33:43;20.90;99.90
21582;DHT22;10952;50.836;4.348;2023-05-07T13:36:09;20.90;99.90
21582;DHT22;10952;50.836;4.348;2023-05-07T13:38:34;20.90;99.90
21582;DHT22;10952;50.836;4.348;2023-05-07T13:41:01;21.00;99.90
21582;DHT22;10952;50.836;4.348;2023-05-07T13:43:26;21.10;99.90
21582;DHT22;10952;50.836;4.348;2023-05-07T13:45:52;20.80;99.90
21582;DHT22;10952;50.836;4.348;2023-05-07T13:48:17;20.70;99.90
21582;DHT22;10952;50.836;4.348;2023-05-07T13:50:43;20.80;99.90
21582;DHT22;10952;50.836;4.348;2023-05-07T13:53:09;20.90;99.90
21582;DHT22;10952;50.836;4.348;2023-05-07T13:55:34;20.70;99.90
21582;DHT22;10952;50.836;4.348;2023-05-07T13:58:01;20.70;99.90
21582;DHT22;10952;50.836;4.348;2023-05-07T14:00:28;20.80;99.90
21582;DHT22;10952;50.836;4.348;2023-05-07T14:02:55;20.80;99.90
21582;DHT22;10952;50.836;4.348;2023-05-07T14:05:21;20.70;99.90
21582;DHT22;10952;50.836;4.348;2023-05-07T14:07:50;20.90;99.90
21582;DHT22;10952;50.836;4.348;2023-05-07T14:10:17;21.00;99.90
21582;DHT22;10952;50.836;4.348;2023-05-07T14:12:44;20.90;99.90
21582;DHT22;10952;50.836;4.348;2023-05-07T14:15:10;20.80;99.90
21582;DHT22;10952;50.836;4.348;2023-05-07T14:17:36;20.70;99.90
21582;DHT22;10952;50.836;4.348;2023-05-07T14:20:02;20.70;99.90
21582;DHT22;10952;50.836;4.348;2023-05-07T14:22:28;20.80;99.90
21582;DHT22;10952;50.836;4.348;2023-05-07T14:24:54;20.80;99.90
21582;DHT22;10952;50.836;4.348;2023-05-07T14:27:20;20.80;99.90
21582;DHT22;10952;50.836;4.348;2023-05-07T14:29:45;20.70;99.90
21582;DHT22;10952;50.836;4.348;2023-05-07T14:32:19;20.90;99.90
21582;DHT22;10952;50.836;4.348;2023-05-07T14:34:45;21.00;99.90
21582;DHT22;10952;50.836;4.348;2023-05-07T14:37:12;21.00;99.90
21582;DHT22;10952;50.836;4.348;2023-05-07T14:39:38;21.00;99.90
21582;DHT22;10952;50.836;4.348;2023-05-07T14:42:03;21.00;99.90
21582;DHT22;10952;50.836;4.348;2023-05-07T14:44:29;20.80;99.90
21582;DHT22;10952;50.836;4.348;2023-05-07T14:46:56;20.90;99.90
21582;DHT22;10952;50.836;4.348;2023-05-07T14:49:23;20.90;99.90
21582;DHT22;10952;50.836;4.348;2023-05-07T14:51:49;20.90;99.90
21582;DHT22;10952;50.836;4.348;2023-05-07T14:54:15;20.70;99.90
21582;DHT22;10952;50.836;4.348;2023-05-07T14:56:41;20.70;99.90
21582;DHT22;10952;50.836;4.348;2023-05-07T14:59:08;20.80;99.90
21582;DHT22;10952;50.836;4.348;2023-05-07T15:01:37;20.70;99.90
21582;DHT22;10952;50.836;4.348;2023-05-07T15:04:03;20.70;99.90
21582;DHT22;10952;50.836;4.348;2023-05-07T15:06:29;20.90;99.90
21582;DHT22;10952;50.836;4.348;2023-05-07T15:08:55;20.90;99.90
21582;DHT22;10952;50.836;4.348;2023-05-07T15:11:21;21.00;99.90
21582;DHT22;10952;50.836;4.348;2023-05-07T15:13:46;20.90;99.90
21582;DHT22;10952;50.836;4.348;2023-05-07T15:16:12;20.90;99.90
21582;DHT22;10952;50.836;4.348;2023-05-07T15:18:38;20.60;99.90
21582;DHT22;10952;50.836;4.348;2023-05-07T15:21:04;20.60;99.90
21582;DHT22;10952;50.836;4.348;2023-05-07T15:23:30;20.70;99.90
21582;DHT22;10952;50.836;4.348;2023-05-07T15:25:56;20.70;99.90
21582;DHT22;10952;50.836;4.348;2023-05-07T15:28:22;20.70;99.90
21582;DHT22;10952;50.836;4.348;2023-05-07T15:30:47;20.70;99.90
21582;DHT22;10952;50.836;4.348;2023-05-07T15:33:13;20.60;99.90
21582;DHT22;10952;50.836;4.348;2023-05-07T15:35:40;20.80;99.90
21582;DHT22;10952;50.836;4.348;2023-05-07T15:38:05;20.70;99.90
21582;DHT22;10952;50.836;4.348;2023-05-07T15:40:31;20.80;99.90
21582;DHT22;10952;50.836;4.348;2023-05-07T15:42:58;20.80;99.90